sensor_id;sensor_type;location;lat;lon;timestamp;P1;durP1;ratioP1;P2;durP2;ratioP2
8938;SDS011;4504;48.810;9.172;2023-06-10T00:01:16;114.40;;;4.87;;
8938;SDS011;4504;48.810;9.172;2023-06-10T00:03:43;116.87;;;4.50;;
8938;SDS011;4504;48.810;9.172;2023-06-10T00:06:10;114.47;;;4.20;;
8938;SDS011;4504;48.810;9.172;2023-06-10T00:08:37;114.90;;;4.47;;
8938;SDS011;4504;48.810;9.172;2023-06-10T00:11:05;115.37;;;4.67;;
8938;SDS011;4504;48.810;9.172;2023-06-10T00:13:33;114.60;;;4.50;;
8938;SDS011;4504;48.810;9.172;2023-06-10T00:16:00;114.27;;;4.40;;
8938;SDS011;4504;48.810;9.172;2023-06-10T00:18:28;114.00;;;4.20;;
8938;SDS011;4504;48.810;9.172;2023-06-10T00:20:56;115.97;;;4.53;;
8938;SDS011;4504;48.810;9.172;2023-06-10T00:23:28;113.77;;;4.77;;
8938;SDS011;4504;48.810;9.172;2023-06-10T00:25:56;114.60;;;4.70;;
8938;SDS011;4504;48.810;9.172;2023-06-10T00:28:23;115.27;;;4.50;;
8938;SDS011;4504;48.810;9.172;2023-06-10T00:30:51;114.00;;;4.47;;
8938;SDS011;4504;48.810;9.172;2023-06-10T00:33:18;116.10;;;4.80;;
8938;SDS011;4504;48.810;9.172;2023-06-10T00:35:46;114.73;;;4.60;;
8938;SDS011;4504;48.810;9.172;2023-06-10T00:38:13;114.70;;;4.90;;
8938;SDS011;4504;48.810;9.172;2023-06-10T00:40:42;113.77;;;5.00;;
8938;SDS011;4504;48.810;9.172;2023-06-10T00:43:09;114.50;;;5.00;;
8938;SDS011;4504;48.810;9.172;2023-06-10T00:45:36;114.87;;;4.93;;
8938;SDS011;4504;48.810;9.172;2023-06-10T00:48:04;115.00;;;5.27;;
8938;SDS011;4504;48.810;9.172;2023-06-10T00:50:32;115.40;;;5.13;;
8938;SDS011;4504;48.810;9.172;2023-06-10T00:53:00;115.30;;;4.67;;
8938;SDS011;4504;48.810;9.172;2023-06-10T00:55:29;114.60;;;4.27;;
8938;SDS011;4504;48.810;9.172;2023-06-10T00:57:56;114.60;;;4.80;;
8938;SDS011;4504;48.810;9.172;2023-06-10T01:00:24;113.87;;;4.73;;
8938;SDS011;4504;48.810;9.172;2023-06-10T01:02:51;114.97;;;4.33;;
8938;SDS011;4504;48.810;9.172;2023-06-10T01:05:20;113.37;;;4.30;;
8938;SDS011;4504;48.810;9.172;2023-06-10T01:07:52;113.30;;;4.20;;
8938;SDS011;4504;48.810;9.172;2023-06-10T01:10:28;115.53;;;4.73;;
8938;SDS011;4504;48.810;9.172;2023-06-10T01:13:00;113.97;;;4.47;;
8938;SDS011;4504;48.810;9.172;2023-06-10T01:15:29;114.17;;;4.73;;
8938;SDS011;4504;48.810;9.172;2023-06-10T01:17:57;112.57;;;4.50;;
8938;SDS011;4504;48.810;9.172;2023-06-10T01:20:31;115.70;;;5.10;;
8938;SDS011;4504;48.810;9.172;2023-06-10T01:23:00;114.17;;;3.90;;
8938;SDS011;4504;48.810;9.172;2023-06-10T01:25:29;114.20;;;4.30;;
8938;SDS011;4504;48.810;9.172;2023-06-10T01:27:59;113.90;;;4.37;;
8938;SDS011;4504;48.810;9.172;2023-06-10T01:30:32;113.60;;;4.40;;
8938;SDS011;4504;48.810;9.172;2023-06-10T01:33:07;113.17;;;4.43;;
8938;SDS011;4504;48.810;9.172;2023-06-10T01:35:37;115.17;;;5.10;;
8938;SDS011;4504;48.810;9.172;2023-06-10T01:38:06;114.47;;;4.60;;
8938;SDS011;4504;48.810;9.172;2023-06-10T01:40:33;114.00;;;3.90;;
8938;SDS011;4504;48.810;9.172;2023-06-10T01:43:01;114.40;;;4.80;;
8938;SDS011;4504;48.810;9.172;2023-06-10T01:45:28;111.97;;;4.70;;
8938;SDS011;4504;48.810;9.172;2023-06-10T01:47:55;112.77;;;4.60;;
8938;SDS011;4504;48.810;9.172;2023-06-10T01:50:22;115.00;;;4.97;;
8938;SDS011;4504;48.810;9.172;2023-06-10T01:52:50;114.67;;;4.60;;
8938;SDS011;4504;48.810;9.172;2023-06-10T01:55:18;115.10;;;5.20;;
8938;SDS011;4504;48.810;9.172;2023-06-10T01:57:45;116.20;;;4.80;;
8938;SDS011;4504;48.810;9.172;2023-06-10T02:00:13;118.37;;;5.20;;
8938;SDS011;4504;48.810;9.172;2023-06-10T02:02:41;113.27;;;4.30;;
8938;SDS011;4504;48.810;9.172;2023-06-10T02:05:08;114.37;;;4.43;;
8938;SDS011;4504;48.810;9.172;2023-06-10T02:07:35;114.60;;;4.50;;
8938;SDS011;4504;48.810;9.172;2023-06-10T02:10:03;116.67;;;4.93;;
8938;SDS011;4504;48.810;9.172;2023-06-10T02:12:32;118.37;;;5.20;;
8938;SDS011;4504;48.810;9.172;2023-06-10T02:14:59;120.17;;;5.60;;
8938;SDS011;4504;48.810;9.172;2023-06-10T02:17:26;114.57;;;4.67;;
8938;SDS011;4504;48.810;9.172;2023-06-10T02:19:53;113.80;;;4.57;;
8938;SDS011;4504;48.810;9.172;2023-06-10T02:22:22;115.80;;;4.80;;
8938;SDS011;4504;48.810;9.172;2023-06-10T02:24:49;121.43;;;5.33;;
8938;SDS011;4504;48.810;9.172;2023-06-10T02:27:17;116.07;;;4.90;;
8938;SDS011;4504;48.810;9.172;2023-06-10T02:29:46;116.57;;;4.93;;
8938;SDS011;4504;48.810;9.172;2023-06-10T02:32:13;117.10;;;5.10;;
8938;SDS011;4504;48.810;9.172;2023-06-10T02:34:41;116.60;;;5.03;;
8938;SDS011;4504;48.810;9.172;2023-06-10T02:37:08;115.47;;;4.63;;
8938;SDS011;4504;48.810;9.172;2023-06-10T02:39:36;116.10;;;4.43;;
8938;SDS011;4504;48.810;9.172;2023-06-10T02:42:06;116.87;;;5.60;;
8938;SDS011;4504;48.810;9.172;2023-06-10T02:44:34;115.10;;;4.80;;
8938;SDS011;4504;48.810;9.172;2023-06-10T02:47:03;116.27;;;5.13;;
8938;SDS011;4504;48.810;9.172;2023-06-10T02:49:32;116.63;;;4.90;;
8938;SDS011;4504;48.810;9.172;2023-06-10T02:52:00;117.00;;;5.23;;
8938;SDS011;4504;48.810;9.172;2023-06-10T02:54:28;115.80;;;4.80;;
8938;SDS011;4504;48.810;9.172;2023-06-10T02:56:55;123.97;;;5.50;;
8938;SDS011;4504;48.810;9.172;2023-06-10T02:59:25;116.10;;;4.80;;
8938;SDS011;4504;48.810;9.172;2023-06-10T03:01:53;116.27;;;5.17;;
8938;SDS011;4504;48.810;9.172;2023-06-10T03:04:23;116.80;;;5.17;;
8938;SDS011;4504;48.810;9.172;2023-06-10T03:06:58;117.37;;;6.03;;
8938;SDS011;4504;48.810;9.172;2023-06-10T03:09:30;116.07;;;4.53;;
8938;SDS011;4504;48.810;9.172;2023-06-10T03:11:59;116.67;;;4.97;;
8938;SDS011;4504;48.810;9.172;2023-06-10T03:14:30;118.20;;;5.70;;
8938;SDS011;4504;48.810;9.172;2023-06-10T03:16:57;115.50;;;5.00;;
8938;SDS011;4504;48.810;9.172;2023-06-10T03:19:26;115.50;;;4.70;;
8938;SDS011;4504;48.810;9.172;2023-06-10T03:22:06;127.80;;;5.00;;
8938;SDS011;4504;48.810;9.172;2023-06-10T03:24:37;115.97;;;5.13;;
8938;SDS011;4504;48.810;9.172;2023-06-10T03:27:07;114.90;;;4.67;;
8938;SDS011;4504;48.810;9.172;2023-06-10T03:29:36;114.70;;;4.80;;
8938;SDS011;4504;48.810;9.172;2023-06-10T03:32:04;116.37;;;5.53;;
8938;SDS011;4504;48.810;9.172;2023-06-10T03:34:35;116.97;;;5.20;;
8938;SDS011;4504;48.810;9.172;2023-06-10T03:37:02;116.50;;;5.13;;
8938;SDS011;4504;48.810;9.172;2023-06-10T03:39:29;116.73;;;5.53;;
8938;SDS011;4504;48.810;9.172;2023-06-10T03:41:58;115.07;;;4.40;;
8938;SDS011;4504;48.810;9.172;2023-06-10T03:44:27;116.77;;;4.43;;
8938;SDS011;4504;48.810;9.172;2023-06-10T03:46:54;114.60;;;4.60;;
8938;SDS011;4504;48.810;9.172;2023-06-10T03:49:23;115.43;;;4.80;;
8938;SDS011;4504;48.810;9.172;2023-06-10T03:51:54;115.23;;;4.60;;
8938;SDS011;4504;48.810;9.172;2023-06-10T03:54:21;117.67;;;5.17;;
8938;SDS011;4504;48.810;9.172;2023-06-10T03:56:48;114.23;;;4.60;;
8938;SDS011;4504;48.810;9.172;2023-06-10T03:59:15;114.60;;;4.33;;
8938;SDS011;4504;48.810;9.172;2023-06-10T04:01:42;117.23;;;4.80;;
8938;SDS011;4504;48.810;9.172;2023-06-10T04:04:09;116.50;;;4.73;;
8938;SDS011;4504;48.810;9.172;2023-06-10T04:06:41;114.30;;;4.23;;
8938;SDS011;4504;48.810;9.172;2023-06-10T04:09:11;116.17;;;4.63;;
8938;SDS011;4504;48.810;9.172;2023-06-10T04:11:39;116.47;;;4.87;;
8938;SDS011;4504;48.810;9.172;2023-06-10T04:14:06;113.73;;;4.33;;
8938;SDS011;4504;48.810;9.172;2023-06-10T04:16:34;114.67;;;5.30;;
8938;SDS011;4504;48.810;9.172;2023-06-10T04:19:02;116.30;;;5.37;;
8938;SDS011;4504;48.810;9.172;2023-06-10T04:21:29;114.70;;;4.40;;
8938;SDS011;4504;48.810;9.172;2023-06-10T04:23:56;114.20;;;4.33;;
8938;SDS011;4504;48.810;9.172;2023-06-10T04:26:24;114.80;;;4.30;;
8938;SDS011;4504;48.810;9.172;2023-06-10T04:28:53;113.57;;;4.93;;
8938;SDS011;4504;48.810;9.172;2023-06-10T04:31:20;113.97;;;4.67;;
8938;SDS011;4504;48.810;9.172;2023-06-10T04:33:47;116.50;;;5.60;;
8938;SDS011;4504;48.810;9.172;2023-06-10T04:36:14;116.17;;;4.90;;
8938;SDS011;4504;48.810;9.172;2023-06-10T04:38:41;115.57;;;4.37;;
8938;SDS011;4504;48.810;9.172;2023-06-10T04:41:08;114.67;;;4.90;;
8938;SDS011;4504;48.810;9.172;2023-06-10T04:43:37;115.47;;;4.83;;
8938;SDS011;4504;48.810;9.172;2023-06-10T04:46:04;115.50;;;4.80;;
8938;SDS011;4504;48.810;9.172;2023-06-10T04:48:32;115.13;;;4.57;;
8938;SDS011;4504;48.810;9.172;2023-06-10T04:51:00;114.47;;;4.70;;
8938;SDS011;4504;48.810;9.172;2023-06-10T04:53:28;114.70;;;4.40;;
8938;SDS011;4504;48.810;9.172;2023-06-10T04:55:55;114.47;;;4.50;;
8938;SDS011;4504;48.810;9.172;2023-06-10T04:58:23;114.50;;;4.40;;
8938;SDS011;4504;48.810;9.172;2023-06-10T05:00:51;117.70;;;5.57;;
8938;SDS011;4504;48.810;9.172;2023-06-10T05:03:18;115.17;;;4.37;;
8938;SDS011;4504;48.810;9.172;2023-06-10T05:05:45;114.40;;;4.03;;
8938;SDS011;4504;48.810;9.172;2023-06-10T05:08:12;117.40;;;5.17;;
8938;SDS011;4504;48.810;9.172;2023-06-10T05:10:39;117.43;;;5.10;;
8938;SDS011;4504;48.810;9.172;2023-06-10T05:13:06;114.60;;;4.80;;
8938;SDS011;4504;48.810;9.172;2023-06-10T05:15:33;114.73;;;4.17;;
8938;SDS011;4504;48.810;9.172;2023-06-10T05:18:01;116.90;;;4.67;;
8938;SDS011;4504;48.810;9.172;2023-06-10T05:20:28;113.93;;;4.23;;
8938;SDS011;4504;48.810;9.172;2023-06-10T05:22:55;114.80;;;4.50;;
8938;SDS011;4504;48.810;9.172;2023-06-10T05:25:22;114.83;;;4.70;;
8938;SDS011;4504;48.810;9.172;2023-06-10T05:27:49;114.13;;;4.20;;
8938;SDS011;4504;48.810;9.172;2023-06-10T05:30:16;113.67;;;4.13;;
8938;SDS011;4504;48.810;9.172;2023-06-10T05:32:44;114.63;;;4.00;;
8938;SDS011;4504;48.810;9.172;2023-06-10T05:35:12;112.20;;;4.13;;
8938;SDS011;4504;48.810;9.172;2023-06-10T05:37:39;113.37;;;4.20;;
8938;SDS011;4504;48.810;9.172;2023-06-10T05:40:07;111.43;;;3.80;;
8938;SDS011;4504;48.810;9.172;2023-06-10T05:42:34;112.50;;;3.80;;
8938;SDS011;4504;48.810;9.172;2023-06-10T05:45:01;112.97;;;3.60;;
8938;SDS011;4504;48.810;9.172;2023-06-10T05:47:29;113.67;;;3.97;;
8938;SDS011;4504;48.810;9.172;2023-06-10T05:49:56;115.67;;;4.90;;
8938;SDS011;4504;48.810;9.172;2023-06-10T05:52:25;112.37;;;4.27;;
8938;SDS011;4504;48.810;9.172;2023-06-10T05:54:52;113.20;;;4.50;;
8938;SDS011;4504;48.810;9.172;2023-06-10T05:57:19;113.07;;;4.20;;
8938;SDS011;4504;48.810;9.172;2023-06-10T05:59:46;111.47;;;3.53;;
8938;SDS011;4504;48.810;9.172;2023-06-10T06:02:13;112.97;;;4.03;;
8938;SDS011;4504;48.810;9.172;2023-06-10T06:04:40;114.30;;;4.50;;
8938;SDS011;4504;48.810;9.172;2023-06-10T06:07:07;111.63;;;3.80;;
8938;SDS011;4504;48.810;9.172;2023-06-10T06:09:35;112.77;;;4.13;;
8938;SDS011;4504;48.810;9.172;2023-06-10T06:12:02;112.17;;;3.90;;
8938;SDS011;4504;48.810;9.172;2023-06-10T06:14:31;111.20;;;4.00;;
8938;SDS011;4504;48.810;9.172;2023-06-10T06:16:58;110.57;;;3.80;;
8938;SDS011;4504;48.810;9.172;2023-06-10T06:19:25;113.07;;;4.10;;
8938;SDS011;4504;48.810;9.172;2023-06-10T06:21:52;112.80;;;3.87;;
8938;SDS011;4504;48.810;9.172;2023-06-10T06:24:19;111.00;;;3.60;;
8938;SDS011;4504;48.810;9.172;2023-06-10T06:26:47;112.03;;;3.80;;
8938;SDS011;4504;48.810;9.172;2023-06-10T06:29:14;113.07;;;4.03;;
8938;SDS011;4504;48.810;9.172;2023-06-10T06:31:41;114.40;;;4.80;;
8938;SDS011;4504;48.810;9.172;2023-06-10T06:34:08;112.13;;;3.70;;
8938;SDS011;4504;48.810;9.172;2023-06-10T06:36:35;112.27;;;4.20;;
8938;SDS011;4504;48.810;9.172;2023-06-10T06:39:02;111.37;;;4.03;;
8938;SDS011;4504;48.810;9.172;2023-06-10T06:41:29;112.10;;;4.10;;
8938;SDS011;4504;48.810;9.172;2023-06-10T06:43:57;112.00;;;4.00;;
8938;SDS011;4504;48.810;9.172;2023-06-10T06:46:29;112.90;;;4.70;;
8938;SDS011;4504;48.810;9.172;2023-06-10T06:48:56;114.87;;;4.00;;
8938;SDS011;4504;48.810;9.172;2023-06-10T06:51:23;112.87;;;4.13;;
8938;SDS011;4504;48.810;9.172;2023-06-10T06:53:50;111.97;;;4.07;;
8938;SDS011;4504;48.810;9.172;2023-06-10T06:56:19;112.97;;;4.23;;
8938;SDS011;4504;48.810;9.172;2023-06-10T06:58:47;111.00;;;4.20;;
8938;SDS011;4504;48.810;9.172;2023-06-10T07:01:16;113.43;;;5.10;;
8938;SDS011;4504;48.810;9.172;2023-06-10T07:03:43;112.37;;;4.30;;
8938;SDS011;4504;48.810;9.172;2023-06-10T07:06:10;109.93;;;3.80;;
8938;SDS011;4504;48.810;9.172;2023-06-10T07:08:37;113.30;;;4.00;;
8938;SDS011;4504;48.810;9.172;2023-06-10T07:11:04;111.70;;;3.70;;
8938;SDS011;4504;48.810;9.172;2023-06-10T07:13:31;111.77;;;3.90;;
8938;SDS011;4504;48.810;9.172;2023-06-10T07:15:58;114.07;;;3.80;;
8938;SDS011;4504;48.810;9.172;2023-06-10T07:18:26;111.53;;;3.47;;
8938;SDS011;4504;48.810;9.172;2023-06-10T07:20:53;111.80;;;3.93;;
8938;SDS011;4504;48.810;9.172;2023-06-10T07:23:20;111.87;;;3.80;;
8938;SDS011;4504;48.810;9.172;2023-06-10T07:25:47;114.00;;;4.20;;
8938;SDS011;4504;48.810;9.172;2023-06-10T07:28:14;109.90;;;3.60;;
8938;SDS011;4504;48.810;9.172;2023-06-10T07:30:41;111.23;;;3.80;;
8938;SDS011;4504;48.810;9.172;2023-06-10T07:33:08;111.00;;;3.83;;
8938;SDS011;4504;48.810;9.172;2023-06-10T07:35:37;109.87;;;3.70;;
8938;SDS011;4504;48.810;9.172;2023-06-10T07:38:04;109.67;;;3.67;;
8938;SDS011;4504;48.810;9.172;2023-06-10T07:40:31;109.77;;;3.50;;
8938;SDS011;4504;48.810;9.172;2023-06-10T07:42:58;111.43;;;4.07;;
8938;SDS011;4504;48.810;9.172;2023-06-10T07:45:25;111.37;;;3.90;;
8938;SDS011;4504;48.810;9.172;2023-06-10T07:47:52;110.57;;;4.43;;
8938;SDS011;4504;48.810;9.172;2023-06-10T07:50:19;110.20;;;3.70;;
8938;SDS011;4504;48.810;9.172;2023-06-10T07:52:47;110.13;;;3.40;;
8938;SDS011;4504;48.810;9.172;2023-06-10T07:55:14;110.70;;;4.03;;
8938;SDS011;4504;48.810;9.172;2023-06-10T07:57:41;110.47;;;3.90;;
8938;SDS011;4504;48.810;9.172;2023-06-10T08:00:08;109.67;;;3.60;;
8938;SDS011;4504;48.810;9.172;2023-06-10T08:02:39;110.20;;;3.50;;
8938;SDS011;4504;48.810;9.172;2023-06-10T08:05:06;109.60;;;3.60;;
8938;SDS011;4504;48.810;9.172;2023-06-10T08:07:33;112.40;;;3.90;;
8938;SDS011;4504;48.810;9.172;2023-06-10T08:10:02;110.57;;;3.33;;
8938;SDS011;4504;48.810;9.172;2023-06-10T08:12:30;111.33;;;3.50;;
8938;SDS011;4504;48.810;9.172;2023-06-10T08:14:57;110.20;;;3.43;;
8938;SDS011;4504;48.810;9.172;2023-06-10T08:17:24;110.40;;;3.40;;
8938;SDS011;4504;48.810;9.172;2023-06-10T08:19:51;108.87;;;3.90;;
8938;SDS011;4504;48.810;9.172;2023-06-10T08:22:18;109.50;;;3.83;;
8938;SDS011;4504;48.810;9.172;2023-06-10T08:24:45;110.10;;;4.23;;
8938;SDS011;4504;48.810;9.172;2023-06-10T08:27:13;110.07;;;3.23;;
8938;SDS011;4504;48.810;9.172;2023-06-10T08:29:40;110.47;;;3.97;;
8938;SDS011;4504;48.810;9.172;2023-06-10T08:32:07;108.97;;;3.10;;
8938;SDS011;4504;48.810;9.172;2023-06-10T08:34:34;115.17;;;4.63;;
8938;SDS011;4504;48.810;9.172;2023-06-10T08:37:02;109.97;;;3.33;;
8938;SDS011;4504;48.810;9.172;2023-06-10T08:39:29;109.57;;;3.63;;
8938;SDS011;4504;48.810;9.172;2023-06-10T08:42:00;109.40;;;3.13;;
8938;SDS011;4504;48.810;9.172;2023-06-10T08:44:38;109.50;;;3.50;;
8938;SDS011;4504;48.810;9.172;2023-06-10T08:47:09;109.37;;;3.90;;
8938;SDS011;4504;48.810;9.172;2023-06-10T08:49:41;110.87;;;4.00;;
8938;SDS011;4504;48.810;9.172;2023-06-10T08:52:10;109.20;;;4.00;;
8938;SDS011;4504;48.810;9.172;2023-06-10T08:54:41;108.10;;;3.57;;
8938;SDS011;4504;48.810;9.172;2023-06-10T08:57:09;109.50;;;4.27;;
8938;SDS011;4504;48.810;9.172;2023-06-10T08:59:38;108.43;;;3.53;;
8938;SDS011;4504;48.810;9.172;2023-06-10T09:02:07;108.87;;;3.40;;
8938;SDS011;4504;48.810;9.172;2023-06-10T09:04:36;109.87;;;3.87;;
8938;SDS011;4504;48.810;9.172;2023-06-10T09:07:03;108.80;;;3.57;;
8938;SDS011;4504;48.810;9.172;2023-06-10T09:09:31;108.17;;;3.40;;
8938;SDS011;4504;48.810;9.172;2023-06-10T09:12:00;108.60;;;3.83;;
8938;SDS011;4504;48.810;9.172;2023-06-10T09:14:27;108.40;;;3.87;;
8938;SDS011;4504;48.810;9.172;2023-06-10T09:16:55;107.13;;;3.30;;
8938;SDS011;4504;48.810;9.172;2023-06-10T09:19:23;108.77;;;3.73;;
8938;SDS011;4504;48.810;9.172;2023-06-10T09:21:51;108.20;;;3.23;;
8938;SDS011;4504;48.810;9.172;2023-06-10T09:24:18;109.00;;;4.00;;
8938;SDS011;4504;48.810;9.172;2023-06-10T09:26:45;108.07;;;4.00;;
8938;SDS011;4504;48.810;9.172;2023-06-10T09:29:12;107.30;;;3.70;;
8938;SDS011;4504;48.810;9.172;2023-06-10T09:31:39;110.00;;;3.77;;
8938;SDS011;4504;48.810;9.172;2023-06-10T09:34:09;107.07;;;3.20;;
8938;SDS011;4504;48.810;9.172;2023-06-10T09:36:37;106.87;;;3.63;;
8938;SDS011;4504;48.810;9.172;2023-06-10T09:39:05;106.97;;;3.17;;
8938;SDS011;4504;48.810;9.172;2023-06-10T09:41:41;107.37;;;3.17;;
8938;SDS011;4504;48.810;9.172;2023-06-10T09:44:10;106.07;;;2.70;;
8938;SDS011;4504;48.810;9.172;2023-06-10T09:46:39;107.23;;;3.20;;
8938;SDS011;4504;48.810;9.172;2023-06-10T09:49:06;107.77;;;3.00;;
8938;SDS011;4504;48.810;9.172;2023-06-10T09:51:34;106.93;;;3.43;;
8938;SDS011;4504;48.810;9.172;2023-06-10T09:54:02;107.47;;;3.17;;
8938;SDS011;4504;48.810;9.172;2023-06-10T09:56:33;106.90;;;3.60;;
8938;SDS011;4504;48.810;9.172;2023-06-10T09:59:01;106.50;;;3.57;;
8938;SDS011;4504;48.810;9.172;2023-06-10T10:01:29;106.57;;;3.20;;
8938;SDS011;4504;48.810;9.172;2023-06-10T10:03:58;108.07;;;4.00;;
8938;SDS011;4504;48.810;9.172;2023-06-10T10:06:26;107.37;;;3.30;;
8938;SDS011;4504;48.810;9.172;2023-06-10T10:08:56;106.77;;;3.50;;
8938;SDS011;4504;48.810;9.172;2023-06-10T10:11:23;107.80;;;3.73;;
8938;SDS011;4504;48.810;9.172;2023-06-10T10:13:51;108.37;;;3.50;;
8938;SDS011;4504;48.810;9.172;2023-06-10T10:16:20;108.03;;;3.27;;
8938;SDS011;4504;48.810;9.172;2023-06-10T10:18:51;106.67;;;3.30;;
8938;SDS011;4504;48.810;9.172;2023-06-10T10:21:22;105.70;;;2.57;;
8938;SDS011;4504;48.810;9.172;2023-06-10T10:23:53;107.87;;;3.50;;
8938;SDS011;4504;48.810;9.172;2023-06-10T10:26:26;107.27;;;3.40;;
8938;SDS011;4504;48.810;9.172;2023-06-10T10:28:58;106.20;;;3.43;;
8938;SDS011;4504;48.810;9.172;2023-06-10T10:31:32;106.47;;;3.03;;
8938;SDS011;4504;48.810;9.172;2023-06-10T10:34:02;105.50;;;3.40;;
8938;SDS011;4504;48.810;9.172;2023-06-10T10:36:34;104.90;;;2.83;;
8938;SDS011;4504;48.810;9.172;2023-06-10T10:39:02;105.67;;;2.90;;
8938;SDS011;4504;48.810;9.172;2023-06-10T10:41:32;109.70;;;4.03;;
8938;SDS011;4504;48.810;9.172;2023-06-10T10:44:00;104.97;;;3.00;;
8938;SDS011;4504;48.810;9.172;2023-06-10T10:46:30;106.33;;;3.43;;
8938;SDS011;4504;48.810;9.172;2023-06-10T10:49:08;105.57;;;2.97;;
8938;SDS011;4504;48.810;9.172;2023-06-10T10:51:36;105.57;;;2.60;;
8938;SDS011;4504;48.810;9.172;2023-06-10T10:54:10;104.07;;;2.43;;
8938;SDS011;4504;48.810;9.172;2023-06-10T10:56:39;103.57;;;2.77;;
8938;SDS011;4504;48.810;9.172;2023-06-10T10:59:26;101.77;;;2.40;;
8938;SDS011;4504;48.810;9.172;2023-06-10T11:02:10;103.07;;;2.70;;
8938;SDS011;4504;48.810;9.172;2023-06-10T11:04:44;101.10;;;2.80;;
8938;SDS011;4504;48.810;9.172;2023-06-10T11:07:12;99.47;;;2.20;;
8938;SDS011;4504;48.810;9.172;2023-06-10T11:09:56;98.67;;;2.53;;
8938;SDS011;4504;48.810;9.172;2023-06-10T11:12:26;99.10;;;2.60;;
8938;SDS011;4504;48.810;9.172;2023-06-10T11:15:05;108.73;;;2.60;;
8938;SDS011;4504;48.810;9.172;2023-06-10T11:17:32;98.67;;;2.47;;
8938;SDS011;4504;48.810;9.172;2023-06-10T11:19:59;99.97;;;2.40;;
8938;SDS011;4504;48.810;9.172;2023-06-10T11:22:27;100.37;;;2.70;;
8938;SDS011;4504;48.810;9.172;2023-06-10T11:24:54;100.70;;;2.80;;
8938;SDS011;4504;48.810;9.172;2023-06-10T11:27:25;100.50;;;2.60;;
8938;SDS011;4504;48.810;9.172;2023-06-10T11:30:18;102.43;;;2.67;;
8938;SDS011;4504;48.810;9.172;2023-06-10T11:32:50;99.50;;;2.23;;
8938;SDS011;4504;48.810;9.172;2023-06-10T11:35:19;100.50;;;2.50;;
8938;SDS011;4504;48.810;9.172;2023-06-10T11:37:47;99.87;;;2.53;;
8938;SDS011;4504;48.810;9.172;2023-06-10T11:40:14;99.00;;;2.57;;
8938;SDS011;4504;48.810;9.172;2023-06-10T11:42:43;99.17;;;2.40;;
8938;SDS011;4504;48.810;9.172;2023-06-10T11:45:14;98.93;;;2.53;;
8938;SDS011;4504;48.810;9.172;2023-06-10T11:47:54;98.23;;;2.00;;
8938;SDS011;4504;48.810;9.172;2023-06-10T11:50:27;97.13;;;1.93;;
8938;SDS011;4504;48.810;9.172;2023-06-10T11:52:55;98.27;;;2.20;;
8938;SDS011;4504;48.810;9.172;2023-06-10T11:55:23;98.97;;;2.33;;
8938;SDS011;4504;48.810;9.172;2023-06-10T11:57:52;99.63;;;1.97;;
8938;SDS011;4504;48.810;9.172;2023-06-10T12:00:23;99.83;;;2.40;;
8938;SDS011;4504;48.810;9.172;2023-06-10T12:02:54;100.00;;;2.50;;
8938;SDS011;4504;48.810;9.172;2023-06-10T12:05:23;101.17;;;2.63;;
8938;SDS011;4504;48.810;9.172;2023-06-10T12:07:51;100.90;;;2.40;;
8938;SDS011;4504;48.810;9.172;2023-06-10T12:10:39;104.87;;;2.70;;
8938;SDS011;4504;48.810;9.172;2023-06-10T12:13:08;100.17;;;2.20;;
8938;SDS011;4504;48.810;9.172;2023-06-10T12:15:36;98.97;;;2.17;;
8938;SDS011;4504;48.810;9.172;2023-06-10T12:18:03;98.10;;;1.97;;
8938;SDS011;4504;48.810;9.172;2023-06-10T12:20:30;97.43;;;2.17;;
8938;SDS011;4504;48.810;9.172;2023-06-10T12:22:59;97.37;;;2.20;;
8938;SDS011;4504;48.810;9.172;2023-06-10T12:25:27;96.17;;;2.20;;
8938;SDS011;4504;48.810;9.172;2023-06-10T12:27:55;95.17;;;1.70;;
8938;SDS011;4504;48.810;9.172;2023-06-10T12:30:25;94.60;;;1.73;;
8938;SDS011;4504;48.810;9.172;2023-06-10T12:32:53;95.10;;;1.70;;
8938;SDS011;4504;48.810;9.172;2023-06-10T12:35:20;96.43;;;2.00;;
8938;SDS011;4504;48.810;9.172;2023-06-10T12:37:56;94.40;;;1.87;;
8938;SDS011;4504;48.810;9.172;2023-06-10T12:40:28;95.53;;;1.60;;
8938;SDS011;4504;48.810;9.172;2023-06-10T12:42:56;98.27;;;2.20;;
8938;SDS011;4504;48.810;9.172;2023-06-10T12:45:28;100.47;;;2.10;;
8938;SDS011;4504;48.810;9.172;2023-06-10T12:48:07;100.70;;;2.03;;
8938;SDS011;4504;48.810;9.172;2023-06-10T12:50:35;99.20;;;2.10;;
8938;SDS011;4504;48.810;9.172;2023-06-10T12:53:04;98.47;;;1.93;;
8938;SDS011;4504;48.810;9.172;2023-06-10T12:55:31;97.80;;;2.00;;
8938;SDS011;4504;48.810;9.172;2023-06-10T12:57:59;98.10;;;2.17;;
8938;SDS011;4504;48.810;9.172;2023-06-10T13:00:28;97.73;;;2.23;;
8938;SDS011;4504;48.810;9.172;2023-06-10T13:02:59;99.07;;;1.93;;
8938;SDS011;4504;48.810;9.172;2023-06-10T13:05:27;100.13;;;2.67;;
8938;SDS011;4504;48.810;9.172;2023-06-10T13:07:54;100.43;;;2.10;;
8938;SDS011;4504;48.810;9.172;2023-06-10T13:10:21;100.80;;;2.13;;
8938;SDS011;4504;48.810;9.172;2023-06-10T13:12:48;101.70;;;2.40;;
8938;SDS011;4504;48.810;9.172;2023-06-10T13:15:15;101.80;;;2.30;;
8938;SDS011;4504;48.810;9.172;2023-06-10T13:17:44;102.47;;;2.30;;
8938;SDS011;4504;48.810;9.172;2023-06-10T13:20:14;102.50;;;2.30;;
8938;SDS011;4504;48.810;9.172;2023-06-10T13:22:41;102.70;;;2.27;;
8938;SDS011;4504;48.810;9.172;2023-06-10T13:25:09;101.00;;;2.70;;
8938;SDS011;4504;48.810;9.172;2023-06-10T13:27:36;97.70;;;1.83;;
8938;SDS011;4504;48.810;9.172;2023-06-10T13:30:04;97.27;;;2.03;;
8938;SDS011;4504;48.810;9.172;2023-06-10T13:32:32;96.73;;;2.00;;
8938;SDS011;4504;48.810;9.172;2023-06-10T13:35:00;95.60;;;1.80;;
8938;SDS011;4504;48.810;9.172;2023-06-10T13:37:28;99.33;;;2.10;;
8938;SDS011;4504;48.810;9.172;2023-06-10T13:39:55;95.80;;;2.43;;
8938;SDS011;4504;48.810;9.172;2023-06-10T13:42:22;92.87;;;1.83;;
8938;SDS011;4504;48.810;9.172;2023-06-10T13:44:51;95.40;;;1.70;;
8938;SDS011;4504;48.810;9.172;2023-06-10T13:47:18;96.80;;;1.90;;
8938;SDS011;4504;48.810;9.172;2023-06-10T13:49:46;97.63;;;2.37;;
8938;SDS011;4504;48.810;9.172;2023-06-10T13:52:14;98.37;;;2.10;;
8938;SDS011;4504;48.810;9.172;2023-06-10T13:54:41;98.37;;;2.00;;
8938;SDS011;4504;48.810;9.172;2023-06-10T13:57:08;100.87;;;2.00;;
8938;SDS011;4504;48.810;9.172;2023-06-10T13:59:35;102.37;;;1.90;;
8938;SDS011;4504;48.810;9.172;2023-06-10T14:02:03;100.87;;;2.00;;
8938;SDS011;4504;48.810;9.172;2023-06-10T14:04:30;100.40;;;2.30;;
8938;SDS011;4504;48.810;9.172;2023-06-10T14:06:57;100.07;;;2.40;;
8938;SDS011;4504;48.810;9.172;2023-06-10T14:09:26;99.77;;;2.27;;
8938;SDS011;4504;48.810;9.172;2023-06-10T14:11:53;98.97;;;1.90;;
8938;SDS011;4504;48.810;9.172;2023-06-10T14:14:20;98.17;;;2.10;;
8938;SDS011;4504;48.810;9.172;2023-06-10T14:16:47;97.70;;;2.10;;
8938;SDS011;4504;48.810;9.172;2023-06-10T14:19:14;96.90;;;1.87;;
8938;SDS011;4504;48.810;9.172;2023-06-10T14:21:41;96.27;;;1.87;;
8938;SDS011;4504;48.810;9.172;2023-06-10T14:24:08;95.60;;;1.90;;
8938;SDS011;4504;48.810;9.172;2023-06-10T14:26:36;94.20;;;1.80;;
8938;SDS011;4504;48.810;9.172;2023-06-10T14:29:03;96.30;;;1.90;;
8938;SDS011;4504;48.810;9.172;2023-06-10T14:31:30;95.57;;;1.67;;
8938;SDS011;4504;48.810;9.172;2023-06-10T14:33:57;95.43;;;2.10;;
8938;SDS011;4504;48.810;9.172;2023-06-10T14:36:24;99.07;;;2.70;;
8938;SDS011;4504;48.810;9.172;2023-06-10T14:38:51;95.60;;;2.10;;
8938;SDS011;4504;48.810;9.172;2023-06-10T14:41:19;98.60;;;2.40;;
8938;SDS011;4504;48.810;9.172;2023-06-10T14:43:48;97.07;;;2.03;;
8938;SDS011;4504;48.810;9.172;2023-06-10T14:46:15;98.53;;;2.10;;
8938;SDS011;4504;48.810;9.172;2023-06-10T14:48:43;98.60;;;2.13;;
8938;SDS011;4504;48.810;9.172;2023-06-10T14:51:10;100.60;;;2.10;;
8938;SDS011;4504;48.810;9.172;2023-06-10T14:53:37;106.37;;;2.50;;
8938;SDS011;4504;48.810;9.172;2023-06-10T14:56:04;101.37;;;2.10;;
8938;SDS011;4504;48.810;9.172;2023-06-10T14:58:31;101.80;;;2.47;;